createdAt,value
2022-11-25T00:02:59.359Z,32.50
2022-11-25T00:05:31.008Z,35.60
2022-11-25T00:08:02.215Z,43.80
2022-11-25T00:10:33.093Z,37.10
2022-11-25T00:13:04.161Z,35.70
2022-11-25T00:15:36.629Z,38.10
2022-11-25T00:18:07.780Z,31.60
2022-11-25T00:23:09.463Z,30.90
2022-11-25T00:28:10.024Z,31.00
2022-11-25T00:30:40.895Z,34.10
2022-11-25T00:33:12.086Z,29.10
2022-11-25T00:38:13.058Z,31.80
2022-11-25T00:41:04.153Z,28.30
2022-11-25T00:43:52.916Z,31.70
2022-11-25T00:46:23.959Z,37.50
2022-11-25T00:51:24.401Z,29.80
2022-11-25T00:53:59.091Z,35.30
2022-11-25T00:56:30.478Z,41.20
2022-11-25T00:59:01.624Z,37.90
2022-11-25T01:04:02.197Z,50.40
2022-11-25T01:06:33.276Z,42.90
2022-11-25T01:09:04.541Z,42.80
2022-11-25T01:14:05.380Z,38.90
2022-11-25T01:16:36.911Z,39.00
2022-11-25T01:19:08.209Z,32.00
2022-11-25T01:21:39.870Z,37.80
2022-11-25T01:24:13.537Z,34.60
2022-11-25T01:26:45.610Z,33.70
2022-11-25T01:29:19.542Z,32.90
2022-11-25T01:31:51.062Z,28.90
2022-11-25T01:34:24.019Z,25.60
2022-11-25T01:36:55.023Z,30.40
2022-11-25T01:39:32.484Z,34.20
2022-11-25T01:44:37.128Z,31.30
2022-11-25T01:47:17.329Z,29.80
2022-11-25T01:49:54.790Z,27.40
2022-11-25T01:55:03.247Z,36.70
2022-11-25T01:57:40.519Z,38.50
2022-11-25T02:00:13.839Z,35.70
2022-11-25T02:02:45.559Z,36.50
2022-11-25T02:05:21.269Z,37.50
2022-11-25T02:07:54.342Z,34.70
2022-11-25T02:10:30.008Z,31.90
2022-11-25T02:13:01.412Z,28.30
2022-11-25T02:15:35.520Z,34.30
2022-11-25T02:18:07.797Z,31.10
2022-11-25T02:20:41.529Z,30.50
2022-11-25T02:23:22.242Z,27.70
2022-11-25T02:25:54.414Z,24.80
2022-11-25T02:28:27.576Z,28.00
2022-11-25T02:30:58.793Z,26.20
2022-11-25T02:36:01.639Z,21.30
2022-11-25T02:38:37.852Z,21.10
2022-11-25T02:41:13.488Z,23.50
2022-11-25T02:43:45.325Z,26.20
2022-11-25T02:46:22.277Z,29.50
2022-11-25T02:49:08.933Z,28.60
2022-11-25T02:51:43.897Z,31.40
2022-11-25T02:54:16.391Z,34.00
2022-11-25T02:56:47.430Z,30.00
2022-11-25T02:59:18.699Z,26.70
2022-11-25T03:01:49.895Z,27.10
2022-11-25T03:04:21.365Z,28.50
2022-11-25T03:06:52.117Z,24.50
2022-11-25T03:09:22.835Z,33.60
2022-11-25T03:12:11.315Z,35.60
2022-11-25T03:14:42.412Z,29.50
2022-11-25T03:17:13.386Z,27.80
2022-11-25T03:19:44.493Z,29.20
2022-11-25T03:24:45.270Z,39.20
2022-11-25T03:27:16.635Z,37.50
2022-11-25T03:29:47.695Z,32.70
2022-11-25T03:32:18.997Z,27.00
2022-11-25T03:34:50.596Z,27.50
2022-11-25T03:39:52.315Z,31.60
2022-11-25T03:42:23.229Z,32.40
2022-11-25T03:44:54.290Z,26.00
2022-11-25T03:47:28.295Z,31.70
2022-11-25T03:49:59.253Z,26.70
2022-11-25T03:52:30.596Z,24.60
2022-11-25T03:55:01.691Z,22.80
2022-11-25T03:57:32.737Z,26.30
2022-11-25T04:00:03.769Z,20.90
2022-11-25T04:02:34.945Z,23.00
2022-11-25T04:05:06.619Z,19.70
2022-11-25T04:07:37.773Z,21.20
2022-11-25T04:10:10.901Z,17.10
2022-11-25T04:12:48.554Z,17.20
2022-11-25T04:15:20.306Z,20.40
2022-11-25T04:17:51.533Z,23.50
2022-11-25T04:20:22.981Z,19.60
2022-11-25T04:22:54.056Z,18.40
2022-11-25T04:25:24.982Z,18.20
2022-11-25T04:27:55.995Z,22.00
2022-11-25T04:30:27.031Z,19.00
2022-11-25T04:32:58.514Z,16.80
2022-11-25T04:35:29.375Z,17.80
2022-11-25T04:38:00.247Z,19.40
2022-11-25T04:40:31.160Z,16.50
2022-11-25T04:43:06.193Z,18.90
2022-11-25T04:48:31.424Z,16.90
2022-11-25T04:51:02.561Z,16.60
2022-11-25T04:53:33.489Z,14.30
2022-11-25T04:56:04.471Z,15.70
2022-11-25T04:58:53.388Z,14.10
2022-11-25T05:01:24.587Z,13.70
2022-11-25T05:06:28.891Z,12.10
2022-11-25T05:08:59.762Z,10.80
2022-11-25T05:11:30.697Z,12.20
2022-11-25T05:14:01.658Z,13.20
2022-11-25T05:16:32.964Z,12.10
2022-11-25T05:19:03.785Z,9.50
2022-11-25T05:21:35.245Z,10.50
2022-11-25T05:24:06.926Z,9.10
2022-11-25T05:26:37.944Z,9.90
2022-11-25T05:29:08.715Z,10.30
2022-11-25T05:31:39.797Z,10.00
2022-11-25T05:34:10.672Z,8.80
2022-11-25T05:39:11.517Z,12.90
2022-11-25T05:41:42.650Z,9.90
2022-11-25T05:44:16.149Z,10.30
2022-11-25T05:46:50.060Z,12.80
2022-11-25T05:49:21.798Z,12.20
2022-11-25T05:51:52.764Z,9.70
2022-11-25T05:54:23.620Z,10.80
2022-11-25T05:56:54.512Z,9.90
2022-11-25T05:59:25.551Z,9.10
2022-11-25T06:01:57.037Z,10.30
2022-11-25T06:04:27.956Z,10.70
2022-11-25T06:06:58.859Z,8.90
2022-11-25T06:09:29.985Z,9.50
2022-11-25T06:12:01.079Z,12.00
2022-11-25T06:14:32.031Z,11.20
2022-11-25T06:17:02.824Z,11.10
2022-11-25T06:19:34.049Z,10.80
2022-11-25T06:22:05.066Z,10.80
2022-11-25T06:24:36.182Z,12.60
2022-11-25T06:27:07.821Z,12.30
2022-11-25T06:32:08.235Z,14.00
2022-11-25T06:34:42.678Z,13.00
2022-11-25T06:37:13.640Z,9.90
2022-11-25T06:39:44.483Z,10.70
2022-11-25T06:42:15.595Z,9.40
2022-11-25T06:44:46.481Z,11.30
2022-11-25T06:47:17.531Z,11.70
2022-11-25T06:49:48.226Z,11.60
2022-11-25T06:52:19.078Z,13.50
2022-11-25T06:54:50.415Z,13.10
2022-11-25T06:59:51.384Z,9.60
2022-11-25T07:02:22.340Z,9.90
2022-11-25T07:04:53.915Z,9.80
2022-11-25T07:07:24.860Z,8.10
2022-11-25T07:09:56.043Z,9.10
2022-11-25T07:12:26.919Z,10.50
2022-11-25T07:14:57.695Z,8.20
2022-11-25T07:17:28.642Z,10.60
2022-11-25T07:19:59.504Z,8.10
2022-11-25T07:22:30.496Z,8.00
2022-11-25T07:25:01.424Z,9.70
2022-11-25T07:27:32.230Z,11.60
2022-11-25T07:30:54.352Z,8.40
2022-11-25T07:32:54.470Z,9.50
2022-11-25T07:35:25.539Z,10.80
2022-11-25T07:37:56.356Z,11.30
2022-11-25T07:40:27.378Z,9.60
2022-11-25T07:42:58.384Z,11.40
2022-11-25T07:47:58.997Z,9.90
2022-11-25T07:53:00.138Z,10.50
2022-11-25T07:55:31.113Z,11.40
2022-11-25T07:58:02.043Z,9.20
2022-11-25T08:00:33.090Z,13.50
2022-11-25T08:03:04.285Z,11.90
2022-11-25T08:05:36.845Z,8.30
2022-11-25T08:08:08.025Z,12.10
2022-11-25T08:10:42.233Z,13.20
2022-11-25T08:13:13.202Z,10.70
2022-11-25T08:15:44.102Z,11.50
2022-11-25T08:18:14.980Z,19.20
2022-11-25T08:20:46.145Z,19.60
2022-11-25T08:25:50.458Z,20.80
2022-11-25T08:28:21.738Z,16.70
2022-11-25T08:30:52.648Z,15.80
2022-11-25T08:33:23.527Z,16.30
2022-11-25T08:35:57.232Z,16.00
2022-11-25T08:38:28.221Z,14.40
2022-11-25T08:40:59.123Z,12.70
2022-11-25T08:43:30.782Z,11.50
2022-11-25T08:46:01.662Z,13.30
2022-11-25T08:48:32.664Z,10.50
2022-11-25T08:53:33.182Z,17.40
2022-11-25T08:56:04.067Z,16.00
2022-11-25T09:01:05.871Z,12.50
2022-11-25T09:03:38.349Z,14.60
2022-11-25T09:06:10.965Z,12.20
2022-11-25T09:08:43.275Z,10.50
2022-11-25T09:11:27.661Z,11.50
2022-11-25T09:13:58.716Z,13.50
2022-11-25T09:16:29.923Z,10.70
2022-11-25T09:19:01.074Z,11.30
2022-11-25T09:21:31.980Z,11.30
2022-11-25T09:24:02.935Z,11.80
2022-11-25T09:26:36.705Z,32.00
2022-11-25T09:29:08.033Z,60.60
2022-11-25T09:31:38.855Z,17.50
2022-11-25T09:34:10.012Z,12.60
2022-11-25T09:39:10.587Z,12.60
2022-11-25T09:45:12.864Z,9.10
2022-11-25T09:47:57.535Z,11.90
2022-11-25T09:50:40.664Z,15.10
2022-11-25T09:53:25.543Z,16.80
2022-11-25T09:56:03.386Z,17.10
2022-11-25T09:58:37.388Z,15.20
2022-11-25T10:01:15.205Z,13.90
2022-11-25T10:03:50.644Z,18.00
2022-11-25T10:06:24.852Z,18.30
2022-11-25T10:08:59.063Z,22.40
2022-11-25T10:11:45.093Z,20.10
2022-11-25T10:14:25.618Z,27.70
2022-11-25T10:17:04.324Z,20.30
2022-11-25T10:19:47.641Z,35.00
2022-11-25T10:22:26.720Z,27.60
2022-11-25T10:25:01.269Z,24.00
2022-11-25T10:27:43.334Z,16.90
2022-11-25T10:30:20.958Z,17.80
2022-11-25T10:33:00.870Z,21.50
2022-11-25T10:35:39.424Z,25.50
2022-11-25T10:38:19.105Z,21.30
2022-11-25T10:40:53.512Z,20.30
2022-11-25T10:43:28.727Z,30.30
2022-11-25T10:46:10.289Z,21.40
2022-11-25T10:49:00.590Z,17.70
2022-11-25T10:51:39.378Z,22.00
2022-11-25T10:54:16.118Z,17.10
2022-11-25T10:59:28.800Z,21.80
2022-11-25T11:02:20.470Z,17.20
2022-11-25T11:05:00.255Z,26.10
2022-11-25T11:07:34.245Z,23.60
2022-11-25T11:10:18.787Z,26.50
2022-11-25T11:13:00.628Z,28.00
2022-11-25T11:15:33.899Z,18.40
2022-11-25T11:18:25.013Z,17.70
2022-11-25T11:20:57.634Z,18.30
2022-11-25T11:23:30.258Z,21.40
2022-11-25T11:26:03.560Z,26.30
2022-11-25T11:28:42.502Z,26.40
2022-11-25T11:31:22.999Z,24.60
2022-11-25T11:34:01.023Z,20.40
2022-11-25T11:36:45.467Z,20.40
2022-11-25T11:39:36.422Z,19.80
2022-11-25T11:42:14.270Z,22.10
2022-11-25T11:44:59.646Z,20.20
2022-11-25T11:47:37.562Z,20.40
2022-11-25T11:50:27.648Z,26.90
2022-11-25T11:56:05.568Z,21.30
2022-11-25T11:58:55.306Z,21.30
2022-11-25T12:01:42.079Z,22.30
2022-11-25T12:04:19.045Z,24.20
2022-11-25T12:07:07.447Z,61.40
2022-11-25T12:09:43.346Z,30.50
2022-11-25T12:12:20.310Z,33.50
2022-11-25T12:14:58.805Z,27.00
2022-11-25T12:17:36.514Z,27.00
2022-11-25T12:20:17.050Z,26.10
2022-11-25T12:22:56.830Z,21.90
2022-11-25T12:25:33.575Z,28.50
2022-11-25T12:28:10.314Z,25.60
2022-11-25T12:30:52.497Z,23.60
2022-11-25T12:33:28.044Z,25.70
2022-11-25T12:36:05.043Z,30.20
2022-11-25T12:38:43.992Z,35.80
2022-11-25T12:41:24.220Z,23.10
2022-11-25T12:44:00.524Z,22.10
2022-11-25T12:46:38.281Z,24.30
2022-11-25T12:49:15.167Z,30.50
2022-11-25T12:51:59.134Z,25.20
2022-11-25T12:54:49.525Z,22.40
2022-11-25T12:57:48.682Z,26.90
2022-11-25T13:00:42.236Z,27.00
2022-11-25T13:03:36.008Z,28.70
2022-11-25T13:06:25.381Z,28.70
2022-11-25T13:09:05.855Z,25.90
2022-11-25T13:12:08.137Z,24.80
2022-11-25T13:15:03.294Z,23.00
2022-11-25T13:17:40.938Z,23.40
2022-11-25T13:23:08.894Z,23.70
2022-11-25T13:25:41.603Z,27.40
2022-11-25T13:31:24.868Z,19.80
2022-11-25T13:34:04.534Z,20.90
2022-11-25T13:36:50.020Z,22.30
2022-11-25T13:39:29.952Z,26.50
2022-11-25T13:42:20.596Z,29.00
2022-11-25T13:44:55.284Z,30.20
2022-11-25T13:47:33.536Z,31.60
2022-11-25T13:50:08.333Z,32.70
2022-11-25T13:52:49.572Z,28.00
2022-11-25T13:55:37.807Z,23.70
2022-11-25T13:58:58.456Z,20.40
2022-11-25T14:01:43.255Z,18.30
2022-11-25T14:04:17.351Z,16.60
2022-11-25T14:07:12.507Z,19.90
2022-11-25T14:10:04.340Z,19.30
2022-11-25T14:12:48.592Z,21.00
2022-11-25T14:15:36.413Z,18.70
2022-11-25T14:18:53.204Z,22.80
2022-11-25T14:21:39.693Z,19.60
2022-11-25T14:24:24.022Z,18.20
2022-11-25T14:26:57.560Z,21.40
2022-11-25T14:29:37.801Z,20.30
2022-11-25T14:32:13.705Z,23.80
2022-11-25T14:34:48.364Z,21.40
2022-11-25T14:37:27.410Z,16.70
2022-11-25T14:40:01.728Z,20.50
2022-11-25T14:42:37.475Z,26.80
2022-11-25T14:45:23.248Z,26.50
2022-11-25T14:47:54.380Z,19.30
2022-11-25T14:50:34.826Z,39.00
2022-11-25T14:53:10.624Z,41.70
2022-11-25T14:55:41.726Z,20.50
2022-11-25T14:58:16.205Z,32.20
2022-11-25T15:01:03.353Z,17.10
2022-11-25T15:03:34.516Z,17.90
2022-11-25T15:06:07.720Z,17.20
2022-11-25T15:08:44.827Z,15.90
2022-11-25T15:11:21.056Z,17.20
2022-11-25T15:14:01.791Z,21.90
2022-11-25T15:16:38.106Z,21.10
2022-11-25T15:19:18.571Z,22.50
2022-11-25T15:22:22.032Z,19.00
2022-11-25T15:24:55.391Z,27.90
2022-11-25T15:27:34.712Z,24.30
2022-11-25T15:30:21.389Z,22.50
2022-11-25T15:32:53.187Z,20.80
2022-11-25T15:35:26.641Z,24.60
2022-11-25T15:37:57.595Z,22.70
2022-11-25T15:40:37.656Z,27.30
2022-11-25T15:43:22.627Z,24.40
2022-11-25T15:45:57.573Z,26.40
2022-11-25T15:48:32.042Z,24.50
2022-11-25T15:51:07.200Z,27.50
2022-11-25T15:53:39.272Z,30.40
2022-11-25T15:56:17.247Z,27.30
2022-11-25T15:58:48.458Z,42.30
2022-11-25T16:01:26.429Z,32.80
2022-11-25T16:04:21.005Z,31.50
2022-11-25T16:07:00.460Z,43.70
2022-11-25T16:09:31.792Z,34.40
2022-11-25T16:12:19.008Z,30.20
2022-11-25T16:14:50.330Z,32.30
2022-11-25T16:17:21.986Z,40.20
2022-11-25T16:19:52.882Z,33.90
2022-11-25T16:22:24.173Z,38.00
2022-11-25T16:25:02.179Z,17.90
2022-11-25T16:27:38.415Z,21.00
2022-11-25T16:30:21.164Z,22.40
2022-11-25T16:32:52.194Z,21.00
2022-11-25T16:35:23.841Z,24.70
2022-11-25T16:38:00.206Z,21.50
2022-11-25T16:40:31.249Z,21.00
2022-11-25T16:45:33.195Z,27.60
2022-11-25T16:48:03.973Z,20.90
2022-11-25T16:50:35.021Z,23.90
2022-11-25T16:53:05.944Z,21.20
2022-11-25T16:55:37.602Z,23.10
2022-11-25T16:58:16.707Z,28.90
2022-11-25T17:00:52.301Z,31.90
2022-11-25T17:03:26.585Z,26.60
2022-11-25T17:05:57.698Z,30.10
2022-11-25T17:08:29.152Z,31.30
2022-11-25T17:11:01.756Z,29.30
2022-11-25T17:13:33.924Z,33.30
2022-11-25T17:16:05.174Z,32.50
2022-11-25T17:18:37.569Z,28.70
2022-11-25T17:21:10.534Z,32.10
2022-11-25T17:23:42.238Z,28.30
2022-11-25T17:26:19.416Z,33.90
2022-11-25T17:28:55.837Z,29.30
2022-11-25T17:31:31.456Z,22.00
2022-11-25T17:34:02.575Z,23.60
2022-11-25T17:36:33.655Z,25.20
2022-11-25T17:41:39.833Z,24.80
2022-11-25T17:44:25.937Z,25.90
2022-11-25T17:46:58.656Z,26.60
2022-11-25T17:49:29.636Z,28.40
2022-11-25T17:52:00.635Z,25.60
2022-11-25T17:54:31.561Z,27.00
2022-11-25T17:57:02.703Z,29.30
2022-11-25T18:02:04.573Z,30.80
2022-11-25T18:04:35.815Z,29.60
2022-11-25T18:07:06.993Z,29.20
2022-11-25T18:12:16.552Z,23.80
2022-11-25T18:14:48.674Z,29.10
2022-11-25T18:17:20.749Z,29.90
2022-11-25T18:19:55.316Z,27.90
2022-11-25T18:22:26.898Z,22.90
2022-11-25T18:24:58.224Z,26.80
2022-11-25T18:27:32.211Z,24.60
2022-11-25T18:30:06.534Z,28.00
2022-11-25T18:32:37.589Z,26.80
2022-11-25T18:35:17.910Z,24.10
2022-11-25T18:37:49.406Z,27.10
2022-11-25T18:40:20.762Z,23.90
2022-11-25T18:42:54.754Z,30.60
2022-11-25T18:45:27.507Z,31.00
2022-11-25T18:47:58.572Z,28.40
2022-11-25T18:52:59.530Z,27.70
2022-11-25T18:55:30.684Z,44.90
2022-11-25T19:03:04.585Z,41.70
2022-11-25T19:05:36.100Z,32.40
2022-11-25T19:08:07.627Z,48.40
2022-11-25T19:10:39.819Z,38.40
2022-11-25T19:13:16.114Z,44.80
2022-11-25T19:15:48.110Z,30.10
2022-11-25T19:18:24.861Z,30.30
2022-11-25T19:20:56.446Z,33.10
2022-11-25T19:23:29.174Z,31.20
2022-11-25T19:26:03.408Z,30.20
2022-11-25T19:28:35.125Z,30.50
2022-11-25T19:31:06.902Z,26.20
2022-11-25T19:33:39.909Z,25.00
2022-11-25T19:36:22.258Z,26.70
2022-11-25T19:38:53.627Z,42.40
2022-11-25T19:41:24.819Z,33.40
2022-11-25T19:43:55.851Z,34.60
2022-11-25T19:46:46.293Z,25.70
2022-11-25T19:49:22.812Z,31.30
2022-11-25T19:51:53.778Z,25.30
2022-11-25T19:54:24.900Z,24.00
2022-11-25T19:56:56.047Z,24.00
2022-11-25T19:59:27.052Z,28.10
2022-11-25T20:01:58.288Z,30.60
2022-11-25T20:04:29.387Z,39.50
2022-11-25T20:09:30.030Z,27.70
2022-11-25T20:12:08.001Z,25.80
2022-11-25T20:14:41.405Z,42.00
2022-11-25T20:17:17.599Z,78.40
2022-11-25T20:19:49.292Z,47.60
2022-11-25T20:22:26.496Z,33.50
2022-11-25T20:24:59.479Z,31.20
2022-11-25T20:27:30.884Z,31.90
2022-11-25T20:30:02.027Z,40.40
2022-11-25T20:32:34.139Z,35.70
2022-11-25T20:35:05.206Z,33.10
2022-11-25T20:40:24.286Z,37.20
2022-11-25T20:42:55.690Z,31.60
2022-11-25T20:45:26.609Z,26.30
2022-11-25T20:47:59.058Z,40.00
2022-11-25T20:50:32.345Z,34.60
2022-11-25T20:53:03.860Z,87.50
2022-11-25T20:55:34.755Z,37.00
2022-11-25T20:58:16.236Z,29.20
2022-11-25T21:00:47.114Z,31.30
2022-11-25T21:03:18.135Z,26.80
2022-11-25T21:05:50.315Z,28.10
2022-11-25T21:08:24.433Z,30.40
2022-11-25T21:10:58.358Z,29.80
2022-11-25T21:13:31.007Z,27.00
2022-11-25T21:16:02.140Z,32.40
2022-11-25T21:21:03.251Z,33.40
2022-11-25T21:23:37.281Z,43.70
2022-11-25T21:26:13.200Z,44.00
2022-11-25T21:28:46.386Z,42.10
2022-11-25T21:31:20.422Z,41.30
2022-11-25T21:33:54.288Z,38.20
2022-11-25T21:36:28.540Z,33.70
2022-11-25T21:39:05.477Z,37.00
2022-11-25T21:41:37.009Z,34.70
2022-11-25T21:44:09.006Z,39.50
2022-11-25T21:46:40.274Z,36.20
2022-11-25T21:51:42.444Z,47.30
2022-11-25T21:54:13.755Z,48.10
2022-11-25T21:56:44.739Z,32.90
2022-11-25T21:59:20.137Z,31.20
2022-11-25T22:01:51.148Z,40.90
2022-11-25T22:04:23.726Z,38.70
2022-11-25T22:06:55.225Z,32.60
2022-11-25T22:09:26.934Z,38.50
2022-11-25T22:11:58.126Z,78.90
2022-11-25T22:14:34.792Z,74.50
2022-11-25T22:17:07.984Z,72.50
2022-11-25T22:19:38.706Z,51.00
2022-11-25T22:22:15.155Z,24.70
2022-11-25T22:24:46.542Z,29.60
2022-11-25T22:27:24.230Z,29.60
2022-11-25T22:32:25.102Z,25.00
2022-11-25T22:34:55.962Z,24.60
2022-11-25T22:37:27.622Z,29.20
2022-11-25T22:39:58.729Z,33.30
2022-11-25T22:42:32.366Z,34.30
2022-11-25T22:45:06.757Z,37.60
2022-11-25T22:47:41.897Z,42.00
2022-11-25T22:50:22.917Z,47.30
2022-11-25T22:52:55.877Z,30.10
2022-11-25T22:55:28.806Z,29.40
2022-11-25T22:58:04.113Z,28.00
2022-11-25T23:00:37.423Z,29.40
2022-11-25T23:03:15.726Z,26.70
2022-11-25T23:05:47.506Z,34.90
2022-11-25T23:08:20.671Z,44.40
2022-11-25T23:10:52.698Z,45.90
2022-11-25T23:13:24.060Z,48.80
2022-11-25T23:15:57.021Z,43.50
2022-11-25T23:18:37.956Z,33.40
2022-11-25T23:21:15.398Z,29.40
2022-11-25T23:23:46.444Z,32.90
2022-11-25T23:26:18.210Z,34.30
2022-11-25T23:28:49.310Z,37.80
2022-11-25T23:33:52.179Z,38.00
2022-11-25T23:36:26.538Z,28.60
2022-11-25T23:39:00.026Z,36.50
2022-11-25T23:41:32.669Z,30.40
2022-11-25T23:44:12.554Z,28.60
2022-11-25T23:46:44.628Z,29.50
2022-11-25T23:49:23.121Z,28.70
2022-11-25T23:51:56.486Z,20.00
2022-11-25T23:54:39.988Z,24.10
2022-11-25T23:59:45.673Z,29.30
